createdAt,value
2018-12-04T00:03:47.487Z,39.1
2018-12-04T00:13:46.689Z,39.8
2018-12-04T00:23:45.898Z,40.5
2018-12-04T00:33:45.096Z,41.3
2018-12-04T00:43:44.303Z,41.9
2018-12-04T00:53:44.073Z,42.6
2018-12-04T01:03:42.710Z,43.3
2018-12-04T01:13:41.924Z,44
2018-12-04T01:23:41.123Z,44.6
2018-12-04T01:33:40.326Z,45.3
2018-12-04T01:43:39.520Z,46
2018-12-04T01:53:38.722Z,46.6
2018-12-04T02:03:37.933Z,47.4
2018-12-04T02:13:37.141Z,48
2018-12-04T02:23:36.334Z,48.7
2018-12-04T02:33:35.534Z,49.4
2018-12-04T02:43:34.745Z,50
2018-12-04T02:53:33.947Z,50.7
2018-12-04T03:03:33.146Z,51.4
2018-12-04T03:13:32.356Z,52
2018-12-04T03:23:31.603Z,52.7
2018-12-04T03:33:30.771Z,53.4
2018-12-04T03:43:29.955Z,48.6
2018-12-04T03:53:29.163Z,36
2018-12-04T04:03:28.365Z,36.9
2018-12-04T04:13:27.572Z,35.6
2018-12-04T04:23:26.777Z,35.1
2018-12-04T04:33:25.986Z,34.8
2018-12-04T04:43:25.190Z,34.4
2018-12-04T04:53:24.398Z,33.2
2018-12-04T05:03:23.620Z,32.8
2018-12-04T05:13:22.823Z,32.5
2018-12-04T05:23:22.036Z,31.6
2018-12-04T05:33:21.247Z,29.4
2018-12-04T05:43:20.450Z,29.3
2018-12-04T05:53:19.661Z,29.5
2018-12-04T06:03:18.867Z,29.8
2018-12-04T06:13:18.073Z,30
2018-12-04T06:23:17.284Z,30.2
2018-12-04T06:33:16.505Z,30.4
2018-12-04T06:43:15.688Z,30.6
2018-12-04T06:53:14.896Z,30.8
2018-12-04T07:03:14.108Z,30.9
2018-12-04T07:13:13.302Z,31.1
2018-12-04T07:23:12.506Z,31.3
2018-12-04T07:33:11.715Z,31.4
2018-12-04T07:43:10.918Z,31.6
2018-12-04T07:53:10.119Z,31.8
2018-12-04T08:03:09.316Z,31.9
2018-12-04T08:13:08.523Z,32
2018-12-04T08:23:07.720Z,32.1
2018-12-04T08:33:06.921Z,32.3
2018-12-04T08:43:06.130Z,32.4
2018-12-04T08:53:05.332Z,32.5
2018-12-04T09:03:04.540Z,32.6
2018-12-04T09:13:03.735Z,32.8
2018-12-04T09:23:02.942Z,32.9
2018-12-04T09:33:02.137Z,33.1
2018-12-04T09:43:04.116Z,33.3
2018-12-04T09:53:00.550Z,33.4
2018-12-04T10:02:59.742Z,33.6
2018-12-04T10:12:58.955Z,33.8
2018-12-04T10:22:58.145Z,34.1
2018-12-04T10:32:57.344Z,34.3
2018-12-04T10:42:56.553Z,34.6
2018-12-04T10:52:55.753Z,34.9
2018-12-04T11:02:54.957Z,35.2
2018-12-04T11:12:54.157Z,35.4
2018-12-04T11:22:53.359Z,35.7
2018-12-04T11:32:52.558Z,35.9
2018-12-04T11:42:51.764Z,36.1
2018-12-04T11:52:50.963Z,36.3
2018-12-04T12:02:50.173Z,36.5
2018-12-04T12:12:49.366Z,36.6
2018-12-04T12:22:48.566Z,36.8
2018-12-04T12:32:47.767Z,36.9
2018-12-04T12:42:46.982Z,37
2018-12-04T12:52:46.174Z,37.1
2018-12-04T13:02:45.370Z,37.2
2018-12-04T13:12:44.580Z,37.3
2018-12-04T13:22:43.777Z,37.3
2018-12-04T13:32:43.031Z,37.4
2018-12-04T13:42:42.182Z,37.2
2018-12-04T13:52:41.390Z,37.2
2018-12-04T14:02:40.592Z,37.1
2018-12-04T14:12:39.795Z,37.1
2018-12-04T14:22:39.003Z,37.2
2018-12-04T14:32:38.214Z,37.3
2018-12-04T14:42:37.435Z,37.3
2018-12-04T14:52:36.619Z,37.3
2018-12-04T15:02:35.850Z,37.3
2018-12-04T15:12:35.030Z,37.3
2018-12-04T15:22:34.265Z,37.4
2018-12-04T15:32:33.472Z,37.4
2018-12-04T15:42:32.688Z,37.4
2018-12-04T15:52:31.844Z,37.3
2018-12-04T16:02:31.040Z,35.9
2018-12-04T16:12:30.254Z,35.3
2018-12-04T16:22:29.462Z,34.3
2018-12-04T16:32:28.669Z,33
2018-12-04T16:42:27.880Z,32.8
2018-12-04T16:52:27.093Z,32.7
2018-12-04T17:02:26.296Z,28.5
2018-12-04T17:12:25.503Z,24.2
2018-12-04T17:22:24.707Z,24.3
2018-12-04T17:32:23.910Z,24.3
2018-12-04T17:42:23.120Z,24
2018-12-04T17:52:22.323Z,23.9
2018-12-04T18:02:21.542Z,23.9
2018-12-04T18:12:20.747Z,23.9
2018-12-04T18:22:19.958Z,23.4
2018-12-04T18:32:19.168Z,23.4
2018-12-04T18:42:18.391Z,23.4
2018-12-04T18:52:17.601Z,23.4
2018-12-04T19:02:16.815Z,23.3
2018-12-04T19:12:16.023Z,23
2018-12-04T19:22:15.231Z,22.2
2018-12-04T19:32:14.451Z,22.1
2018-12-04T19:42:13.706Z,21.8
2018-12-04T19:52:12.865Z,21.8
2018-12-04T20:02:12.082Z,21.8
2018-12-04T20:12:11.295Z,21.8
2018-12-04T20:22:10.509Z,20.1
2018-12-04T20:32:09.712Z,20
2018-12-04T20:42:10.225Z,20
2018-12-04T20:52:08.134Z,20.1
2018-12-04T21:02:07.342Z,20.3
2018-12-04T21:12:06.552Z,20.6
2018-12-04T21:22:05.758Z,20.9
2018-12-04T21:32:04.962Z,21.3
2018-12-04T21:42:04.167Z,21.7
2018-12-04T21:52:03.372Z,22.1
2018-12-04T22:02:02.581Z,22.6
2018-12-04T22:12:01.798Z,23.2
2018-12-04T22:22:00.996Z,23.8
2018-12-04T22:32:00.204Z,24.4
2018-12-04T22:41:59.407Z,25.1
2018-12-04T22:51:58.611Z,25.7
2018-12-04T23:01:57.814Z,26.4
2018-12-04T23:11:57.025Z,27.1
2018-12-04T23:21:56.231Z,27.8
2018-12-04T23:31:55.445Z,28.6
2018-12-04T23:41:54.637Z,29.3
2018-12-04T23:51:53.845Z,30
